sensor_id;sensor_type;location;lat;lon;timestamp;temperature;humidity
38325;DHT22;24126;52.672;13.622;2022-09-09T00:03:33;20.90;74.70
38325;DHT22;24126;52.672;13.622;2022-09-09T00:06:08;20.90;74.60
38325;DHT22;24126;52.672;13.622;2022-09-09T00:08:51;20.90;74.50
38325;DHT22;24126;52.672;13.622;2022-09-09T00:11:24;20.80;74.50
38325;DHT22;24126;52.672;13.622;2022-09-09T00:13:52;20.70;74.60
38325;DHT22;24126;52.672;13.622;2022-09-09T00:16:21;20.70;74.60
38325;DHT22;24126;52.672;13.622;2022-09-09T00:21:19;20.70;74.70
38325;DHT22;24126;52.672;13.622;2022-09-09T00:23:51;20.60;74.60
38325;DHT22;24126;52.672;13.622;2022-09-09T00:31:30;20.50;74.70
38325;DHT22;24126;52.672;13.622;2022-09-09T00:33:58;20.50;74.90
38325;DHT22;24126;52.672;13.622;2022-09-09T00:36:28;20.40;74.80
38325;DHT22;24126;52.672;13.622;2022-09-09T00:38:59;20.40;74.90
38325;DHT22;24126;52.672;13.622;2022-09-09T00:43:57;20.40;75.10
38325;DHT22;24126;52.672;13.622;2022-09-09T00:49:28;20.30;74.90
38325;DHT22;24126;52.672;13.622;2022-09-09T00:54:48;20.30;74.90
38325;DHT22;24126;52.672;13.622;2022-09-09T00:57:29;20.30;74.80
38325;DHT22;24126;52.672;13.622;2022-09-09T01:05:27;20.20;74.70
38325;DHT22;24126;52.672;13.622;2022-09-09T01:07:57;20.10;74.70
38325;DHT22;24126;52.672;13.622;2022-09-09T01:10:37;20.10;74.80
38325;DHT22;24126;52.672;13.622;2022-09-09T01:13:11;20.10;74.80
38325;DHT22;24126;52.672;13.622;2022-09-09T01:15:40;20.10;74.70
38325;DHT22;24126;52.672;13.622;2022-09-09T01:18:10;20.10;74.30
38325;DHT22;24126;52.672;13.622;2022-09-09T01:20:49;20.10;74.20
38325;DHT22;24126;52.672;13.622;2022-09-09T01:23:37;20.10;74.20
38325;DHT22;24126;52.672;13.622;2022-09-09T01:26:23;20.00;73.90
38325;DHT22;24126;52.672;13.622;2022-09-09T01:28:52;20.00;74.40
38325;DHT22;24126;52.672;13.622;2022-09-09T01:31:23;19.90;75.00
38325;DHT22;24126;52.672;13.622;2022-09-09T01:33:53;19.90;75.60
38325;DHT22;24126;52.672;13.622;2022-09-09T01:36:24;19.80;75.80
38325;DHT22;24126;52.672;13.622;2022-09-09T01:38:54;19.70;76.90
38325;DHT22;24126;52.672;13.622;2022-09-09T01:41:21;19.70;76.50
38325;DHT22;24126;52.672;13.622;2022-09-09T01:44:10;19.60;76.80
38325;DHT22;24126;52.672;13.622;2022-09-09T01:46:39;19.60;77.10
38325;DHT22;24126;52.672;13.622;2022-09-09T01:49:12;19.60;77.10
38325;DHT22;24126;52.672;13.622;2022-09-09T01:51:39;19.70;77.00
38325;DHT22;24126;52.672;13.622;2022-09-09T01:54:10;19.70;76.90
38325;DHT22;24126;52.672;13.622;2022-09-09T01:59:40;19.80;76.40
38325;DHT22;24126;52.672;13.622;2022-09-09T02:02:13;19.80;76.10
38325;DHT22;24126;52.672;13.622;2022-09-09T02:04:52;19.80;75.90
38325;DHT22;24126;52.672;13.622;2022-09-09T02:09:59;19.80;75.60
38325;DHT22;24126;52.672;13.622;2022-09-09T02:12:27;19.80;75.60
38325;DHT22;24126;52.672;13.622;2022-09-09T02:15:07;19.80;75.30
38325;DHT22;24126;52.672;13.622;2022-09-09T02:17:45;19.70;75.10
38325;DHT22;24126;52.672;13.622;2022-09-09T02:20:15;19.70;75.00
38325;DHT22;24126;52.672;13.622;2022-09-09T02:22:50;19.70;75.10
38325;DHT22;24126;52.672;13.622;2022-09-09T02:25:20;19.70;75.10
38325;DHT22;24126;52.672;13.622;2022-09-09T02:27:49;19.60;75.20
38325;DHT22;24126;52.672;13.622;2022-09-09T02:30:17;19.60;75.30
38325;DHT22;24126;52.672;13.622;2022-09-09T02:32:50;19.60;75.40
38325;DHT22;24126;52.672;13.622;2022-09-09T02:35:23;19.60;75.30
38325;DHT22;24126;52.672;13.622;2022-09-09T02:37:53;19.60;75.10
38325;DHT22;24126;52.672;13.622;2022-09-09T02:40:22;19.60;74.90
38325;DHT22;24126;52.672;13.622;2022-09-09T02:42:57;19.60;74.90
38325;DHT22;24126;52.672;13.622;2022-09-09T02:45:27;19.60;75.10
38325;DHT22;24126;52.672;13.622;2022-09-09T02:48:08;19.60;75.30
38325;DHT22;24126;52.672;13.622;2022-09-09T02:50:41;19.50;75.10
38325;DHT22;24126;52.672;13.622;2022-09-09T02:53:15;19.50;75.30
38325;DHT22;24126;52.672;13.622;2022-09-09T02:55:48;19.50;75.30
38325;DHT22;24126;52.672;13.622;2022-09-09T02:58:20;19.40;75.50
38325;DHT22;24126;52.672;13.622;2022-09-09T03:00:55;19.40;75.40
38325;DHT22;24126;52.672;13.622;2022-09-09T03:03:23;19.40;75.30
38325;DHT22;24126;52.672;13.622;2022-09-09T03:05:51;19.40;75.70
38325;DHT22;24126;52.672;13.622;2022-09-09T03:08:19;19.40;75.60
38325;DHT22;24126;52.672;13.622;2022-09-09T03:10:47;19.40;75.50
38325;DHT22;24126;52.672;13.622;2022-09-09T03:13:15;19.40;75.40
38325;DHT22;24126;52.672;13.622;2022-09-09T03:15:42;19.40;75.40
38325;DHT22;24126;52.672;13.622;2022-09-09T03:18:14;19.40;75.20
38325;DHT22;24126;52.672;13.622;2022-09-09T03:20:41;19.30;75.00
38325;DHT22;24126;52.672;13.622;2022-09-09T03:23:08;19.40;74.90
38325;DHT22;24126;52.672;13.622;2022-09-09T03:25:35;19.30;74.80
38325;DHT22;24126;52.672;13.622;2022-09-09T03:28:02;19.30;75.00
38325;DHT22;24126;52.672;13.622;2022-09-09T03:30:29;19.30;75.00
38325;DHT22;24126;52.672;13.622;2022-09-09T03:32:57;19.30;75.00
38325;DHT22;24126;52.672;13.622;2022-09-09T03:35:29;19.30;75.00
38325;DHT22;24126;52.672;13.622;2022-09-09T03:37:56;19.20;74.90
38325;DHT22;24126;52.672;13.622;2022-09-09T03:40:23;19.20;74.90
38325;DHT22;24126;52.672;13.622;2022-09-09T03:42:50;19.20;75.10
38325;DHT22;24126;52.672;13.622;2022-09-09T03:45:18;19.20;75.10
38325;DHT22;24126;52.672;13.622;2022-09-09T03:47:45;19.20;75.10
38325;DHT22;24126;52.672;13.622;2022-09-09T03:50:12;19.20;75.00
38325;DHT22;24126;52.672;13.622;2022-09-09T03:52:44;19.10;74.90
38325;DHT22;24126;52.672;13.622;2022-09-09T03:55:17;19.10;74.90
38325;DHT22;24126;52.672;13.622;2022-09-09T03:57:44;19.10;74.80
38325;DHT22;24126;52.672;13.622;2022-09-09T04:00:12;19.10;75.10
38325;DHT22;24126;52.672;13.622;2022-09-09T04:02:42;19.10;75.20
38325;DHT22;24126;52.672;13.622;2022-09-09T04:05:12;19.10;75.30
38325;DHT22;24126;52.672;13.622;2022-09-09T04:07:42;19.10;75.30
38325;DHT22;24126;52.672;13.622;2022-09-09T04:10:09;19.00;75.10
38325;DHT22;24126;52.672;13.622;2022-09-09T04:12:38;19.00;75.60
38325;DHT22;24126;52.672;13.622;2022-09-09T04:15:05;19.00;75.70
38325;DHT22;24126;52.672;13.622;2022-09-09T04:17:34;19.00;75.70
38325;DHT22;24126;52.672;13.622;2022-09-09T04:20:02;19.00;75.70
38325;DHT22;24126;52.672;13.622;2022-09-09T04:22:29;19.00;75.80
38325;DHT22;24126;52.672;13.622;2022-09-09T04:24:57;18.90;75.90
38325;DHT22;24126;52.672;13.622;2022-09-09T04:27:25;18.90;76.10
38325;DHT22;24126;52.672;13.622;2022-09-09T04:29:52;18.90;76.00
38325;DHT22;24126;52.672;13.622;2022-09-09T04:32:23;18.90;75.60
38325;DHT22;24126;52.672;13.622;2022-09-09T04:34:53;18.90;75.30
38325;DHT22;24126;52.672;13.622;2022-09-09T04:37:20;18.90;75.30
38325;DHT22;24126;52.672;13.622;2022-09-09T04:39:47;18.90;74.90
38325;DHT22;24126;52.672;13.622;2022-09-09T04:42:14;18.90;75.00
38325;DHT22;24126;52.672;13.622;2022-09-09T04:44:43;18.90;75.00
38325;DHT22;24126;52.672;13.622;2022-09-09T04:47:10;18.90;75.00
38325;DHT22;24126;52.672;13.622;2022-09-09T04:49:37;18.90;75.20
38325;DHT22;24126;52.672;13.622;2022-09-09T04:52:05;18.80;75.40
38325;DHT22;24126;52.672;13.622;2022-09-09T04:54:35;18.80;75.70
38325;DHT22;24126;52.672;13.622;2022-09-09T04:57:02;18.80;75.60
38325;DHT22;24126;52.672;13.622;2022-09-09T04:59:29;18.80;75.40
38325;DHT22;24126;52.672;13.622;2022-09-09T05:01:58;18.80;75.40
38325;DHT22;24126;52.672;13.622;2022-09-09T05:04:26;18.80;75.10
38325;DHT22;24126;52.672;13.622;2022-09-09T05:06:54;18.80;75.00
38325;DHT22;24126;52.672;13.622;2022-09-09T05:09:23;18.90;75.20
38325;DHT22;24126;52.672;13.622;2022-09-09T05:11:50;18.90;75.20
38325;DHT22;24126;52.672;13.622;2022-09-09T05:14:28;18.80;75.10
38325;DHT22;24126;52.672;13.622;2022-09-09T05:16:56;18.90;75.20
38325;DHT22;24126;52.672;13.622;2022-09-09T05:19:24;18.90;75.40
38325;DHT22;24126;52.672;13.622;2022-09-09T05:21:52;18.90;76.20
38325;DHT22;24126;52.672;13.622;2022-09-09T05:24:29;18.90;75.60
38325;DHT22;24126;52.672;13.622;2022-09-09T05:26:59;19.00;75.60
38325;DHT22;24126;52.672;13.622;2022-09-09T05:29:28;19.00;75.60
38325;DHT22;24126;52.672;13.622;2022-09-09T05:31:56;19.10;75.70
38325;DHT22;24126;52.672;13.622;2022-09-09T05:34:24;19.10;75.90
38325;DHT22;24126;52.672;13.622;2022-09-09T05:36:50;19.20;76.20
38325;DHT22;24126;52.672;13.622;2022-09-09T05:39:20;19.10;76.30
38325;DHT22;24126;52.672;13.622;2022-09-09T05:41:47;19.20;76.70
38325;DHT22;24126;52.672;13.622;2022-09-09T05:44:14;19.30;76.90
38325;DHT22;24126;52.672;13.622;2022-09-09T05:46:42;19.40;76.80
38325;DHT22;24126;52.672;13.622;2022-09-09T05:49:11;19.50;76.70
38325;DHT22;24126;52.672;13.622;2022-09-09T05:51:40;19.50;76.90
38325;DHT22;24126;52.672;13.622;2022-09-09T05:54:11;19.60;76.40
38325;DHT22;24126;52.672;13.622;2022-09-09T05:56:42;19.70;76.70
38325;DHT22;24126;52.672;13.622;2022-09-09T05:59:10;19.70;76.60
38325;DHT22;24126;52.672;13.622;2022-09-09T06:01:38;19.80;76.80
38325;DHT22;24126;52.672;13.622;2022-09-09T06:04:06;19.90;76.60
38325;DHT22;24126;52.672;13.622;2022-09-09T06:06:34;20.00;76.80
38325;DHT22;24126;52.672;13.622;2022-09-09T06:09:04;20.10;76.80
38325;DHT22;24126;52.672;13.622;2022-09-09T06:11:35;20.20;76.50
38325;DHT22;24126;52.672;13.622;2022-09-09T06:14:03;20.40;76.20
38325;DHT22;24126;52.672;13.622;2022-09-09T06:16:31;20.50;75.80
38325;DHT22;24126;52.672;13.622;2022-09-09T06:18:59;20.60;75.40
38325;DHT22;24126;52.672;13.622;2022-09-09T06:21:28;20.70;75.20
38325;DHT22;24126;52.672;13.622;2022-09-09T06:23:58;20.90;74.60
38325;DHT22;24126;52.672;13.622;2022-09-09T06:26:27;21.30;73.40
38325;DHT22;24126;52.672;13.622;2022-09-09T06:28:56;21.70;72.30
38325;DHT22;24126;52.672;13.622;2022-09-09T06:31:25;22.10;71.30
38325;DHT22;24126;52.672;13.622;2022-09-09T06:33:54;22.30;70.10
38325;DHT22;24126;52.672;13.622;2022-09-09T06:36:24;22.40;69.60
38325;DHT22;24126;52.672;13.622;2022-09-09T06:38:52;22.50;69.60
38325;DHT22;24126;52.672;13.622;2022-09-09T06:41:20;22.60;69.00
38325;DHT22;24126;52.672;13.622;2022-09-09T06:43:48;22.80;68.50
38325;DHT22;24126;52.672;13.622;2022-09-09T06:46:17;22.90;68.20
38325;DHT22;24126;52.672;13.622;2022-09-09T06:48:45;23.00;67.80
38325;DHT22;24126;52.672;13.622;2022-09-09T06:51:19;23.00;67.90
38325;DHT22;24126;52.672;13.622;2022-09-09T06:53:49;23.00;68.10
38325;DHT22;24126;52.672;13.622;2022-09-09T06:56:21;23.00;68.20
38325;DHT22;24126;52.672;13.622;2022-09-09T06:58:51;22.90;67.80
38325;DHT22;24126;52.672;13.622;2022-09-09T07:01:25;22.90;68.50
38325;DHT22;24126;52.672;13.622;2022-09-09T07:03:54;22.90;68.90
38325;DHT22;24126;52.672;13.622;2022-09-09T07:06:22;22.90;69.40
38325;DHT22;24126;52.672;13.622;2022-09-09T07:08:55;22.90;69.70
38325;DHT22;24126;52.672;13.622;2022-09-09T07:11:30;23.00;69.50
38325;DHT22;24126;52.672;13.622;2022-09-09T07:13:58;22.90;68.80
38325;DHT22;24126;52.672;13.622;2022-09-09T07:16:26;22.90;69.10
38325;DHT22;24126;52.672;13.622;2022-09-09T07:18:57;22.80;69.60
38325;DHT22;24126;52.672;13.622;2022-09-09T07:21:25;22.80;70.20
38325;DHT22;24126;52.672;13.622;2022-09-09T07:23:53;22.80;70.50
38325;DHT22;24126;52.672;13.622;2022-09-09T07:26:26;22.90;70.50
38325;DHT22;24126;52.672;13.622;2022-09-09T07:28:54;22.80;70.30
38325;DHT22;24126;52.672;13.622;2022-09-09T07:31:23;22.80;70.60
38325;DHT22;24126;52.672;13.622;2022-09-09T07:33:50;22.80;70.30
38325;DHT22;24126;52.672;13.622;2022-09-09T07:36:22;22.80;70.70
38325;DHT22;24126;52.672;13.622;2022-09-09T07:38:51;22.80;70.70
38325;DHT22;24126;52.672;13.622;2022-09-09T07:41:23;22.80;70.30
38325;DHT22;24126;52.672;13.622;2022-09-09T07:43:51;22.80;70.30
38325;DHT22;24126;52.672;13.622;2022-09-09T07:46:20;22.70;70.60
38325;DHT22;24126;52.672;13.622;2022-09-09T07:48:49;22.80;70.70
38325;DHT22;24126;52.672;13.622;2022-09-09T07:51:18;22.80;70.80
38325;DHT22;24126;52.672;13.622;2022-09-09T07:53:50;22.90;70.50
38325;DHT22;24126;52.672;13.622;2022-09-09T07:56:18;22.90;70.60
38325;DHT22;24126;52.672;13.622;2022-09-09T07:58:48;23.00;70.40
38325;DHT22;24126;52.672;13.622;2022-09-09T08:01:20;23.10;69.90
38325;DHT22;24126;52.672;13.622;2022-09-09T08:03:52;23.20;70.20
38325;DHT22;24126;52.672;13.622;2022-09-09T08:06:20;23.40;69.90
38325;DHT22;24126;52.672;13.622;2022-09-09T08:08:49;23.60;69.40
38325;DHT22;24126;52.672;13.622;2022-09-09T08:11:17;23.80;69.30
38325;DHT22;24126;52.672;13.622;2022-09-09T08:13:44;24.00;68.90
38325;DHT22;24126;52.672;13.622;2022-09-09T08:16:16;24.30;67.70
38325;DHT22;24126;52.672;13.622;2022-09-09T08:18:43;24.50;67.50
38325;DHT22;24126;52.672;13.622;2022-09-09T08:21:12;24.70;67.50
38325;DHT22;24126;52.672;13.622;2022-09-09T08:23:40;24.90;66.50
38325;DHT22;24126;52.672;13.622;2022-09-09T08:26:12;25.20;65.70
38325;DHT22;24126;52.672;13.622;2022-09-09T08:28:40;25.40;65.00
38325;DHT22;24126;52.672;13.622;2022-09-09T08:31:16;25.60;65.30
38325;DHT22;24126;52.672;13.622;2022-09-09T08:33:44;25.80;64.80
38325;DHT22;24126;52.672;13.622;2022-09-09T08:36:13;26.00;64.10
38325;DHT22;24126;52.672;13.622;2022-09-09T08:38:41;26.20;62.80
38325;DHT22;24126;52.672;13.622;2022-09-09T08:49:58;26.50;61.50
38325;DHT22;24126;52.672;13.622;2022-09-09T08:52:14;26.50;61.80
38325;DHT22;24126;52.672;13.622;2022-09-09T08:54:44;26.50;61.80
38325;DHT22;24126;52.672;13.622;2022-09-09T08:57:14;26.40;61.80
38325;DHT22;24126;52.672;13.622;2022-09-09T08:59:41;26.30;61.80
38325;DHT22;24126;52.672;13.622;2022-09-09T09:02:22;26.40;62.30
38325;DHT22;24126;52.672;13.622;2022-09-09T09:10:38;26.20;61.00
38325;DHT22;24126;52.672;13.622;2022-09-09T09:13:14;26.00;60.90
38325;DHT22;24126;52.672;13.622;2022-09-09T09:15:42;25.90;61.00
38325;DHT22;24126;52.672;13.622;2022-09-09T09:18:11;25.70;61.80
38325;DHT22;24126;52.672;13.622;2022-09-09T09:23:09;25.50;61.80
38325;DHT22;24126;52.672;13.622;2022-09-09T09:25:41;25.40;62.40
38325;DHT22;24126;52.672;13.622;2022-09-09T09:28:15;25.50;62.60
38325;DHT22;24126;52.672;13.622;2022-09-09T09:30:50;25.40;62.70
38325;DHT22;24126;52.672;13.622;2022-09-09T09:33:30;25.50;62.00
38325;DHT22;24126;52.672;13.622;2022-09-09T09:35:59;25.50;62.10
38325;DHT22;24126;52.672;13.622;2022-09-09T09:38:27;25.60;62.70
38325;DHT22;24126;52.672;13.622;2022-09-09T09:40:58;25.80;62.00
38325;DHT22;24126;52.672;13.622;2022-09-09T09:43:30;26.00;60.70
38325;DHT22;24126;52.672;13.622;2022-09-09T09:46:03;26.10;60.50
38325;DHT22;24126;52.672;13.622;2022-09-09T09:48:31;26.20;60.50
38325;DHT22;24126;52.672;13.622;2022-09-09T09:51:00;26.30;59.60
38325;DHT22;24126;52.672;13.622;2022-09-09T09:53:32;26.30;60.30
38325;DHT22;24126;52.672;13.622;2022-09-09T09:56:04;26.60;60.70
38325;DHT22;24126;52.672;13.622;2022-09-09T09:58:33;26.90;60.60
38325;DHT22;24126;52.672;13.622;2022-09-09T10:01:02;27.20;60.90
38325;DHT22;24126;52.672;13.622;2022-09-09T10:03:31;27.40;60.30
38325;DHT22;24126;52.672;13.622;2022-09-09T10:06:00;27.60;59.40
38325;DHT22;24126;52.672;13.622;2022-09-09T10:08:27;27.70;58.50
38325;DHT22;24126;52.672;13.622;2022-09-09T10:13:46;27.70;57.70
38325;DHT22;24126;52.672;13.622;2022-09-09T10:16:21;27.60;57.60
38325;DHT22;24126;52.672;13.622;2022-09-09T10:18:56;27.60;58.10
38325;DHT22;24126;52.672;13.622;2022-09-09T10:21:28;27.60;58.00
38325;DHT22;24126;52.672;13.622;2022-09-09T10:26:49;28.00;58.60
38325;DHT22;24126;52.672;13.622;2022-09-09T10:32:23;28.50;56.70
38325;DHT22;24126;52.672;13.622;2022-09-09T10:34:56;28.70;56.00
38325;DHT22;24126;52.672;13.622;2022-09-09T10:37:41;28.70;55.70
38325;DHT22;24126;52.672;13.622;2022-09-09T10:40:20;28.80;55.30
38325;DHT22;24126;52.672;13.622;2022-09-09T10:42:50;28.80;56.00
38325;DHT22;24126;52.672;13.622;2022-09-09T10:45:18;28.90;55.90
38325;DHT22;24126;52.672;13.622;2022-09-09T10:50:36;29.10;55.10
38325;DHT22;24126;52.672;13.622;2022-09-09T10:55:43;29.10;55.10
38325;DHT22;24126;52.672;13.622;2022-09-09T10:58:14;29.30;55.00
38325;DHT22;24126;52.672;13.622;2022-09-09T11:00:45;29.60;54.20
38325;DHT22;24126;52.672;13.622;2022-09-09T11:03:23;29.70;54.70
38325;DHT22;24126;52.672;13.622;2022-09-09T11:05:53;29.80;54.00
38325;DHT22;24126;52.672;13.622;2022-09-09T11:08:23;29.90;54.20
38325;DHT22;24126;52.672;13.622;2022-09-09T11:11:06;29.80;53.60
38325;DHT22;24126;52.672;13.622;2022-09-09T11:13:39;29.60;53.10
38325;DHT22;24126;52.672;13.622;2022-09-09T11:16:14;29.50;54.10
38325;DHT22;24126;52.672;13.622;2022-09-09T11:18:43;29.50;54.10
38325;DHT22;24126;52.672;13.622;2022-09-09T11:21:22;29.40;54.10
38325;DHT22;24126;52.672;13.622;2022-09-09T11:23:54;29.40;54.40
38325;DHT22;24126;52.672;13.622;2022-09-09T11:26:28;29.30;53.70
38325;DHT22;24126;52.672;13.622;2022-09-09T11:29:04;29.30;53.50
38325;DHT22;24126;52.672;13.622;2022-09-09T11:34:12;29.40;52.70
38325;DHT22;24126;52.672;13.622;2022-09-09T11:42:07;29.30;54.10
38325;DHT22;24126;52.672;13.622;2022-09-09T11:44:34;29.40;53.10
38325;DHT22;24126;52.672;13.622;2022-09-09T11:47:01;29.50;53.10
38325;DHT22;24126;52.672;13.622;2022-09-09T11:49:29;29.50;53.60
38325;DHT22;24126;52.672;13.622;2022-09-09T11:51:57;29.60;53.20
38325;DHT22;24126;52.672;13.622;2022-09-09T11:54:31;29.60;53.80
38325;DHT22;24126;52.672;13.622;2022-09-09T11:56:58;29.60;52.70
38325;DHT22;24126;52.672;13.622;2022-09-09T11:59:29;29.60;53.10
38325;DHT22;24126;52.672;13.622;2022-09-09T12:01:58;29.60;53.00
38325;DHT22;24126;52.672;13.622;2022-09-09T12:04:30;29.70;52.80
38325;DHT22;24126;52.672;13.622;2022-09-09T12:06:59;29.70;52.70
38325;DHT22;24126;52.672;13.622;2022-09-09T12:09:33;29.70;52.20
38325;DHT22;24126;52.672;13.622;2022-09-09T12:17:19;29.70;52.50
38325;DHT22;24126;52.672;13.622;2022-09-09T12:19:47;29.80;52.20
38325;DHT22;24126;52.672;13.622;2022-09-09T12:22:25;29.80;52.10
38325;DHT22;24126;52.672;13.622;2022-09-09T12:25:07;29.90;52.10
38325;DHT22;24126;52.672;13.622;2022-09-09T12:27:42;29.90;51.10
38325;DHT22;24126;52.672;13.622;2022-09-09T12:30:12;30.00;51.70
38325;DHT22;24126;52.672;13.622;2022-09-09T12:32:41;30.10;51.90
38325;DHT22;24126;52.672;13.622;2022-09-09T12:35:18;30.00;50.10
38325;DHT22;24126;52.672;13.622;2022-09-09T12:40:23;30.00;51.00
38325;DHT22;24126;52.672;13.622;2022-09-09T12:42:51;30.10;51.10
38325;DHT22;24126;52.672;13.622;2022-09-09T12:45:21;30.00;49.60
38325;DHT22;24126;52.672;13.622;2022-09-09T12:50:26;29.70;51.00
38325;DHT22;24126;52.672;13.622;2022-09-09T12:52:54;29.70;50.00
38325;DHT22;24126;52.672;13.622;2022-09-09T12:55:21;29.50;49.90
38325;DHT22;24126;52.672;13.622;2022-09-09T12:57:50;29.40;50.90
38325;DHT22;24126;52.672;13.622;2022-09-09T13:00:18;29.20;49.80
38325;DHT22;24126;52.672;13.622;2022-09-09T13:02:47;29.10;49.80
38325;DHT22;24126;52.672;13.622;2022-09-09T13:05:20;29.00;50.40
38325;DHT22;24126;52.672;13.622;2022-09-09T13:07:47;28.90;51.20
38325;DHT22;24126;52.672;13.622;2022-09-09T13:10:15;28.70;50.70
38325;DHT22;24126;52.672;13.622;2022-09-09T13:12:47;28.60;51.10
38325;DHT22;24126;52.672;13.622;2022-09-09T13:15:24;28.50;51.50
38325;DHT22;24126;52.672;13.622;2022-09-09T13:17:54;28.50;51.70
38325;DHT22;24126;52.672;13.622;2022-09-09T13:20:22;28.50;52.00
38325;DHT22;24126;52.672;13.622;2022-09-09T13:22:49;28.50;52.50
38325;DHT22;24126;52.672;13.622;2022-09-09T13:25:20;28.50;52.50
38325;DHT22;24126;52.672;13.622;2022-09-09T13:28:04;28.40;51.70
38325;DHT22;24126;52.672;13.622;2022-09-09T13:30:32;28.40;51.70
38325;DHT22;24126;52.672;13.622;2022-09-09T13:35:48;28.40;52.50
38325;DHT22;24126;52.672;13.622;2022-09-09T13:38:16;28.30;52.10
38325;DHT22;24126;52.672;13.622;2022-09-09T13:40:59;28.20;51.90
38325;DHT22;24126;52.672;13.622;2022-09-09T13:43:36;28.30;52.10
38325;DHT22;24126;52.672;13.622;2022-09-09T13:46:06;28.20;51.70
38325;DHT22;24126;52.672;13.622;2022-09-09T13:48:56;28.10;51.30
38325;DHT22;24126;52.672;13.622;2022-09-09T13:51:29;28.00;51.50
38325;DHT22;24126;52.672;13.622;2022-09-09T13:53:57;28.00;52.10
38325;DHT22;24126;52.672;13.622;2022-09-09T13:56:26;27.90;51.70
38325;DHT22;24126;52.672;13.622;2022-09-09T13:58:53;27.90;51.60
38325;DHT22;24126;52.672;13.622;2022-09-09T14:01:20;27.90;51.70
38325;DHT22;24126;52.672;13.622;2022-09-09T14:03:48;27.90;51.40
38325;DHT22;24126;52.672;13.622;2022-09-09T14:06:16;27.90;52.10
38325;DHT22;24126;52.672;13.622;2022-09-09T14:08:44;27.90;53.10
38325;DHT22;24126;52.672;13.622;2022-09-09T14:11:12;27.90;53.10
38325;DHT22;24126;52.672;13.622;2022-09-09T14:13:39;28.00;52.00
38325;DHT22;24126;52.672;13.622;2022-09-09T14:16:06;28.00;52.10
38325;DHT22;24126;52.672;13.622;2022-09-09T14:18:33;28.10;51.80
38325;DHT22;24126;52.672;13.622;2022-09-09T14:21:00;28.20;51.80
38325;DHT22;24126;52.672;13.622;2022-09-09T14:23:28;28.30;52.00
38325;DHT22;24126;52.672;13.622;2022-09-09T14:25:55;28.40;51.80
38325;DHT22;24126;52.672;13.622;2022-09-09T14:28:22;28.40;52.10
38325;DHT22;24126;52.672;13.622;2022-09-09T14:30:50;28.50;50.80
38325;DHT22;24126;52.672;13.622;2022-09-09T14:33:17;28.50;50.20
38325;DHT22;24126;52.672;13.622;2022-09-09T14:35:43;28.40;50.20
38325;DHT22;24126;52.672;13.622;2022-09-09T14:38:11;28.30;50.30
38325;DHT22;24126;52.672;13.622;2022-09-09T14:40:37;28.30;50.10
38325;DHT22;24126;52.672;13.622;2022-09-09T14:43:05;28.20;50.60
38325;DHT22;24126;52.672;13.622;2022-09-09T14:45:32;28.10;51.30
38325;DHT22;24126;52.672;13.622;2022-09-09T14:47:59;28.10;51.50
38325;DHT22;24126;52.672;13.622;2022-09-09T14:50:26;28.10;50.80
38325;DHT22;24126;52.672;13.622;2022-09-09T14:52:53;28.00;50.60
38325;DHT22;24126;52.672;13.622;2022-09-09T14:55:20;28.00;51.80
38325;DHT22;24126;52.672;13.622;2022-09-09T14:57:47;27.90;51.90
38325;DHT22;24126;52.672;13.622;2022-09-09T15:00:14;27.90;52.30
38325;DHT22;24126;52.672;13.622;2022-09-09T15:02:41;28.00;51.20
38325;DHT22;24126;52.672;13.622;2022-09-09T15:05:08;27.90;51.10
38325;DHT22;24126;52.672;13.622;2022-09-09T15:07:36;27.90;51.20
38325;DHT22;24126;52.672;13.622;2022-09-09T15:10:04;27.90;51.50
38325;DHT22;24126;52.672;13.622;2022-09-09T15:12:31;27.80;50.80
38325;DHT22;24126;52.672;13.622;2022-09-09T15:14:58;27.80;50.80
38325;DHT22;24126;52.672;13.622;2022-09-09T15:17:25;27.70;51.00
38325;DHT22;24126;52.672;13.622;2022-09-09T15:19:52;27.70;50.50
38325;DHT22;24126;52.672;13.622;2022-09-09T15:22:20;27.70;51.60
38325;DHT22;24126;52.672;13.622;2022-09-09T15:24:47;27.70;51.30
38325;DHT22;24126;52.672;13.622;2022-09-09T15:27:14;27.70;51.70
38325;DHT22;24126;52.672;13.622;2022-09-09T15:29:41;27.70;51.30
38325;DHT22;24126;52.672;13.622;2022-09-09T15:32:09;27.70;51.30
38325;DHT22;24126;52.672;13.622;2022-09-09T15:34:36;27.60;50.70
38325;DHT22;24126;52.672;13.622;2022-09-09T15:37:03;27.60;50.80
38325;DHT22;24126;52.672;13.622;2022-09-09T15:39:32;27.50;52.10
38325;DHT22;24126;52.672;13.622;2022-09-09T15:41:59;27.50;52.50
38325;DHT22;24126;52.672;13.622;2022-09-09T15:44:26;27.50;52.50
38325;DHT22;24126;52.672;13.622;2022-09-09T15:46:53;27.50;52.70
38325;DHT22;24126;52.672;13.622;2022-09-09T15:49:21;27.40;52.70
38325;DHT22;24126;52.672;13.622;2022-09-09T15:51:54;27.40;52.90
38325;DHT22;24126;52.672;13.622;2022-09-09T15:54:23;27.40;53.20
38325;DHT22;24126;52.672;13.622;2022-09-09T15:56:55;27.50;53.50
38325;DHT22;24126;52.672;13.622;2022-09-09T15:59:22;27.50;54.00
38325;DHT22;24126;52.672;13.622;2022-09-09T16:01:49;27.50;53.30
38325;DHT22;24126;52.672;13.622;2022-09-09T16:04:17;27.50;53.70
38325;DHT22;24126;52.672;13.622;2022-09-09T16:06:49;27.50;54.00
38325;DHT22;24126;52.672;13.622;2022-09-09T16:09:17;27.50;54.00
38325;DHT22;24126;52.672;13.622;2022-09-09T16:11:44;27.40;54.40
38325;DHT22;24126;52.672;13.622;2022-09-09T16:14:12;27.40;54.00
38325;DHT22;24126;52.672;13.622;2022-09-09T16:16:40;27.30;53.30
38325;DHT22;24126;52.672;13.622;2022-09-09T16:19:08;27.30;53.40
38325;DHT22;24126;52.672;13.622;2022-09-09T16:21:37;27.30;53.30
38325;DHT22;24126;52.672;13.622;2022-09-09T16:24:05;27.20;52.70
38325;DHT22;24126;52.672;13.622;2022-09-09T16:26:33;27.10;52.70
38325;DHT22;24126;52.672;13.622;2022-09-09T16:29:01;27.10;52.40
38325;DHT22;24126;52.672;13.622;2022-09-09T16:31:28;27.10;52.40
38325;DHT22;24126;52.672;13.622;2022-09-09T16:33:56;26.90;52.60
38325;DHT22;24126;52.672;13.622;2022-09-09T16:36:25;26.90;53.10
38325;DHT22;24126;52.672;13.622;2022-09-09T16:38:53;26.80;53.20
38325;DHT22;24126;52.672;13.622;2022-09-09T16:41:20;26.80;53.70
38325;DHT22;24126;52.672;13.622;2022-09-09T16:43:51;26.70;53.10
38325;DHT22;24126;52.672;13.622;2022-09-09T16:46:19;26.70;53.40
38325;DHT22;24126;52.672;13.622;2022-09-09T16:48:46;26.70;53.60
38325;DHT22;24126;52.672;13.622;2022-09-09T16:51:15;26.70;54.20
38325;DHT22;24126;52.672;13.622;2022-09-09T16:53:43;26.60;54.10